首页
METAR-TAF:

METAR-TAF

机场 :

哈里逊, 阿肯色州, 美国

纬度: 36-15-42N, 经度: 093-09-17W, 海拔: 416米

当前天气观测

该预报发布于16分钟前的09:53 UTC
静风
温度 14°C
湿度 94%
气压 1023 hPa
能見度: 16.1公里
天空无云

METAR: KHRO 010953Z AUTO 00000KT 10SM CLR 14/13 A3021 RMK AO2 SLP219 T01390133 $

时间: 05:09 (10:09 UTC)

预报

该预报发布于4小时和49分钟前的05:20 UTC
预报有效从01日的 06点(UTC)到 02日的 06点(UTC)
风速节,风向
能見度: 10公里
散云层高于25000英尺
从 01日的 1500点(UTC)
风速8节,风向南转南东,有时为16节阵风
能見度: 10公里
散云层高于25000英尺
从 02日的 0000点(UTC)
风速4节,风向南转南东
能見度: 10公里
散云层高于25000英尺

TAF: KHRO 010520Z 0106/0206 00000KT P6SM SCT250 FM011500 15008G16KT P6SM SCT250 FM020000 16004KT P6SM SCT250

超过4000个机场的气象观测和天气预报(METAR&TAF报告)。

可查询的气象台以黄色和红色小点在地图上表示。

将鼠标移到小点上方,可查看气象台名称。

然后点击查看天气观测和预报。

如需切换地图:点击带黑十字的绿色按钮放大地图;点击带横线的绿色按钮缩小地图;或者点击绿色箭头查看邻近地区的地图。


METAR-TAF: